Time;durP1;ratioP1;P1;durP2;ratioP2;P2;SDS_P1;SDS_P2;PMS_P1;PMS_P2;Temp;Humidity;BMP_temperature;BMP_pressure;BME280_temperature;BME280_humidity;BME280_pressure;Samples;Min_cycle;Max_cycle;Signal;HPM_P1;HPM_P2
2023/01/10 00:00:24;;;;;;;29.15;12.70;;;;;;;5.34;61.06;100562.38;5051338;28;20389;-74
2023/01/10 00:02:50;;;;;;;28.48;13.57;;;;;;;5.31;61.50;100565.28;5051245;28;20408;-75
2023/01/10 00:05:17;;;;;;;30.85;14.27;;;;;;;5.26;61.07;100560.47;5051184;28;20454;-74
2023/01/10 00:07:43;;;;;;;29.15;13.20;;;;;;;5.26;61.07;100568.34;5049268;28;20474;-75
2023/01/10 00:10:09;;;;;;;29.58;12.77;;;;;;;5.23;60.89;100558.09;5049158;28;20396;-74
2023/01/10 00:15:19;;;;;;;26.95;13.73;;;;;;;5.33;60.92;100579.97;5050401;28;20420;-75
2023/01/10 00:17:44;;;;;;;27.25;13.27;;;;;;;5.30;61.31;100551.31;5049922;28;20492;-74
2023/01/10 00:20:11;;;;;;;28.17;13.63;;;;;;;5.37;60.65;100567.38;5050768;28;20521;-75
2023/01/10 00:22:36;;;;;;;25.88;12.85;;;;;;;5.40;61.13;100550.47;5050434;28;20824;-75
2023/01/10 00:25:02;;;;;;;30.20;12.90;;;;;;;5.43;60.87;100553.66;5045271;28;20434;-75
2023/01/10 00:27:29;;;;;;;27.45;13.13;;;;;;;5.35;60.72;100528.09;5046468;28;20414;-74
2023/01/10 00:29:57;;;;;;;28.70;13.10;;;;;;;4.99;61.42;100529.63;5049198;28;20415;-74
2023/01/10 00:32:22;;;;;;;28.05;13.52;;;;;;;4.96;62.06;100541.22;5049922;28;20811;-74
2023/01/10 00:34:48;;;;;;;38.50;18.60;;;;;;;5.13;61.89;100546.75;5050193;28;20956;-74
2023/01/10 00:37:13;;;;;;;31.77;14.10;;;;;;;5.15;61.47;100550.94;5049815;28;20863;-74
2023/01/10 00:39:39;;;;;;;31.23;14.30;;;;;;;5.18;61.26;100534.03;5048449;28;20476;-75
2023/01/10 00:44:49;;;;;;;31.23;14.85;;;;;;;5.26;60.85;100526.28;5051241;28;20482;-75
2023/01/10 00:47:14;;;;;;;31.17;14.73;;;;;;;5.24;61.17;100519.50;5065225;28;20424;-75
2023/01/10 00:49:40;;;;;;;33.60;14.70;;;;;;;5.18;61.14;100518.28;5049465;28;20424;-75
2023/01/10 00:52:06;;;;;;;33.60;13.98;;;;;;;5.19;61.40;100516.50;5049649;28;20477;-75
2023/01/10 00:54:32;;;;;;;38.60;15.52;;;;;;;5.28;61.50;100531.41;5049463;28;20395;-73
2023/01/10 00:56:57;;;;;;;34.10;15.80;;;;;;;5.39;61.14;100523.38;5044784;28;20426;-74
2023/01/10 00:59:23;;;;;;;33.08;13.85;;;;;;;5.40;60.74;100537.34;5045850;28;20788;-74
2023/01/10 01:01:50;;;;;;;36.22;15.48;;;;;;;5.34;61.65;100542.19;5051436;28;20408;-73
2023/01/10 01:04:15;;;;;;;31.90;15.27;;;;;;;5.40;61.45;100527.63;5050123;28;20389;-75
2023/01/10 01:06:45;;;;;;;33.08;14.65;;;;;;;5.42;61.44;100527.50;5049421;28;20458;-74
2023/01/10 01:09:11;;;;;;;32.40;13.43;;;;;;;5.37;61.00;100520.06;5047969;28;20385;-74
2023/01/10 01:11:36;;;;;;;32.75;13.95;;;;;;;5.25;61.77;100521.19;5049235;28;20403;-74
2023/01/10 01:14:02;;;;;;;30.50;13.80;;;;;;;5.32;61.38;100523.09;5049108;28;20389;-74
2023/01/10 01:16:27;;;;;;;29.10;13.00;;;;;;;5.29;60.93;100526.00;5049386;28;20540;-73
2023/01/10 01:18:53;;;;;;;35.33;16.30;;;;;;;5.35;60.74;100532.53;5064875;28;20412;-74
2023/01/10 01:21:20;;;;;;;43.47;21.15;;;;;;;5.39;61.20;100527.81;5064795;28;20526;-73
2023/01/10 01:23:45;;;;;;;34.10;14.48;;;;;;;5.41;61.21;100521.44;5049100;28;20881;-74
2023/01/10 01:26:11;;;;;;;29.65;13.60;;;;;;;5.38;60.44;100515.63;5049049;28;20461;-74
2023/01/10 01:28:36;;;;;;;34.07;14.53;;;;;;;5.46;60.69;100534.97;5049364;28;20385;-74
2023/01/10 01:31:07;;;;;;;29.67;13.82;;;;;;;5.29;60.86;100533.06;5065019;28;20960;-74
2023/01/10 01:33:32;;;;;;;28.92;13.13;;;;;;;5.32;60.68;100527.53;5048739;28;20402;-74
2023/01/10 01:35:58;;;;;;;32.57;13.80;;;;;;;5.24;60.79;100519.50;5049274;28;20392;-75
2023/01/10 01:38:23;;;;;;;30.08;13.32;;;;;;;5.22;60.92;100510.94;5048633;28;20479;-74
2023/01/10 01:40:49;;;;;;;26.90;13.20;;;;;;;5.14;61.66;100528.22;5051070;28;20392;-74
2023/01/10 01:43:22;;;;;;;27.27;13.03;;;;;;;5.15;61.45;100529.91;5053430;28;20456;-75
2023/01/10 01:45:48;;;;;;;31.08;13.73;;;;;;;5.17;61.23;100522.72;5052899;28;20406;-74
2023/01/10 01:48:19;;;;;;;30.08;12.73;;;;;;;5.05;61.10;100534.31;5053589;28;20393;-74
2023/01/10 01:51:25;;;;;;;34.60;15.23;;;;;;;5.21;61.27;100540.84;5053267;28;20416;-74
2023/01/10 01:54:01;;;;;;;32.15;13.70;;;;;;;5.24;60.74;100523.00;5029990;28;20756;-74
2023/01/10 01:56:43;;;;;;;31.67;13.45;;;;;;;5.21;60.84;100525.06;5050030;28;20399;-75
2023/01/10 01:59:16;;;;;;;31.05;13.40;;;;;;;5.27;60.97;100530.56;5053071;28;20385;-74
2023/01/10 02:01:45;;;;;;;27.77;13.40;;;;;;;5.32;61.21;100527.53;5052342;28;20420;-74
2023/01/10 02:04:15;;;;;;;29.88;13.55;;;;;;;5.20;61.23;100505.00;5052829;28;20399;-75
2023/01/10 02:06:43;;;;;;;31.17;14.55;;;;;;;5.18;61.42;100515.63;5051940;28;20393;-73
2023/01/10 02:09:24;;;;;;;36.10;14.30;;;;;;;5.29;61.18;100506.78;5053625;28;20470;-74
2023/01/10 02:11:50;;;;;;;34.40;14.50;;;;;;;4.99;61.35;100495.47;5052899;28;20384;-73
2023/01/10 02:14:16;;;;;;;32.90;14.70;;;;;;;4.87;62.05;100505.28;5053441;28;20407;-73
2023/01/10 02:16:42;;;;;;;30.40;14.23;;;;;;;4.77;62.33;100497.41;5053319;28;20465;-74
2023/01/10 02:19:22;;;;;;;35.90;15.17;;;;;;;4.81;62.25;100492.72;5053574;28;20397;-74
2023/01/10 02:22:25;;;;;;;33.85;14.88;;;;;;;4.84;62.17;100500.31;5052418;28;20384;-73
2023/01/10 02:25:18;;;;;;;32.28;14.55;;;;;;;4.88;61.84;100495.59;5052209;28;20384;-74
2023/01/10 02:27:59;;;;;;;33.20;14.40;;;;;;;4.77;62.37;100493.94;5052875;28;20435;-74
2023/01/10 02:30:43;;;;;;;37.72;15.90;;;;;;;4.87;62.23;100505.28;5053321;28;20444;-75
2023/01/10 02:33:08;;;;;;;33.53;15.15;;;;;;;4.95;62.48;100500.19;5052890;28;20414;-75
2023/01/10 02:35:53;;;;;;;35.25;15.60;;;;;;;5.07;62.04;100515.78;5052554;28;20414;-75
2023/01/10 02:38:37;;;;;;;34.10;15.40;;;;;;;5.03;62.07;100520.50;5054845;28;20397;-74
2023/01/10 02:41:24;;;;;;;38.50;14.55;;;;;;;4.93;62.58;100511.78;5054015;28;20410;-75
2023/01/10 02:43:56;;;;;;;34.33;15.32;;;;;;;5.06;62.03;100506.25;5052747;28;20413;-74
2023/01/10 02:46:27;;;;;;;45.85;19.23;;;;;;;5.10;61.74;100516.34;5052773;28;20904;-75
2023/01/10 02:48:53;;;;;;;45.80;21.15;;;;;;;5.07;61.66;100516.63;5052914;28;20484;-77
2023/01/10 02:51:22;;;;;;;37.88;15.50;;;;;;;5.01;61.91;100519.81;5052126;28;20388;-76
2023/01/10 02:54:02;;;;;;;38.33;16.80;;;;;;;4.92;61.95;100520.66;5051889;28;20471;-77
2023/01/10 02:56:46;;;;;;;34.10;15.37;;;;;;;4.94;62.08;100518.72;5054801;28;20553;-76
2023/01/10 02:59:45;;;;;;;30.55;13.70;;;;;;;4.86;61.77;100513.31;5056096;28;20424;-77
2023/01/10 03:02:16;;;;;;;29.00;14.18;;;;;;;4.97;62.14;100516.63;5052921;28;20408;-77
2023/01/10 03:05:01;;;;;;;30.15;14.20;;;;;;;5.13;61.82;100508.19;5051331;28;20393;-77
2023/01/10 03:07:36;;;;;;;29.33;13.10;;;;;;;5.11;61.36;100501.41;5053226;28;20475;-77
2023/01/10 03:10:07;;;;;;;26.85;12.65;;;;;;;5.01;61.97;100487.47;5052605;28;20400;-77
2023/01/10 03:12:43;;;;;;;29.73;13.85;;;;;;;4.95;61.89;100488.81;5052399;28;20725;-77
2023/01/10 03:15:13;;;;;;;29.55;13.55;;;;;;;4.91;61.71;100488.28;5052740;28;20496;-79
2023/01/10 03:17:41;;;;;;;26.33;13.02;;;;;;;4.84;61.79;100491.59;5054002;28;20425;-77
2023/01/10 03:20:08;;;;;;;24.77;12.10;;;;;;;4.91;62.36;100493.53;5057454;28;20714;-77
2023/01/10 03:22:38;;;;;;;24.15;11.18;;;;;;;4.82;62.48;100483.03;5070677;28;20447;-78
2023/01/10 03:25:07;;;;;;;23.40;11.05;;;;;;;4.66;62.55;100481.78;5053033;28;20460;-77
2023/01/10 03:27:37;;;;;;;23.48;10.55;;;;;;;4.54;63.20;100475.03;5055383;28;20483;-77
2023/01/10 03:30:23;;;;;;;18.63;9.97;;;;;;;4.60;62.72;100475.28;5052100;28;20568;-77
2023/01/10 03:32:48;;;;;;;19.92;9.40;;;;;;;4.73;62.73;100490.75;5041480;28;20396;-78
2023/01/10 03:35:15;;;;;;;21.58;10.32;;;;;;;4.89;62.05;100492.84;5051015;28;20388;-77
2023/01/10 03:37:48;;;;;;;23.65;11.38;;;;;;;5.02;62.09;100497.00;5050105;28;20407;-77
2023/01/10 03:40:32;;;;;;;21.33;10.88;;;;;;;4.87;62.23;100494.78;5050907;28;20434;-77
2023/01/10 03:46:31;;;;;;;20.23;9.88;;;;;;;4.96;62.14;100487.88;5039064;28;20725;-78
2023/01/10 03:48:58;;;;;;;20.90;9.95;;;;;;;4.99;62.07;100484.97;5067242;28;20393;-78
2023/01/10 03:51:26;;;;;;;14.73;8.37;;;;;;;4.89;62.21;100481.50;5069181;28;20810;-78
2023/01/10 03:53:52;;;;;;;18.83;10.23;;;;;;;4.76;62.76;100487.88;5051914;28;20389;-81
2023/01/10 03:56:17;;;;;;;15.50;9.23;;;;;;;4.60;62.55;100474.47;5053090;28;20895;-78
2023/01/10 03:58:43;;;;;;;16.07;8.43;;;;;;;4.68;63.09;100482.50;5049801;28;20754;-80
2023/01/10 04:01:08;;;;;;;17.00;9.07;;;;;;;4.74;62.58;100491.63;5045513;28;20450;-78
2023/01/10 04:03:34;;;;;;;14.90;9.00;;;;;;;4.84;62.33;100500.31;5053496;28;20830;-80
2023/01/10 04:05:59;;;;;;;20.20;11.43;;;;;;;4.90;62.54;100498.94;5052042;28;20493;-78
2023/01/10 04:08:25;;;;;;;16.23;9.55;;;;;;;4.70;62.64;100485.81;5069517;28;20391;-78
2023/01/10 04:10:50;;;;;;;15.60;10.20;;;;;;;4.75;62.63;100493.25;5052924;28;20385;-78
2023/01/10 04:13:16;;;;;;;14.90;8.90;;;;;;;4.94;62.29;100510.81;5052875;28;20384;-78
2023/01/10 04:15:41;;;;;;;16.67;10.37;;;;;;;5.09;61.99;100506.78;5052606;28;20412;-77
2023/01/10 04:18:07;;;;;;;15.27;10.10;;;;;;;5.04;61.77;100523.94;5050514;28;20726;-76
2023/01/10 04:20:32;;;;;;;15.50;10.38;;;;;;;5.01;62.10;100506.69;5050692;28;20393;-78
2023/01/10 04:22:58;;;;;;;18.40;11.33;;;;;;;5.01;62.02;100498.78;5050468;28;20474;-77
2023/01/10 04:25:23;;;;;;;17.27;10.57;;;;;;;4.96;62.14;100466.84;5050435;28;20388;-76
2023/01/10 04:27:50;;;;;;;19.65;10.68;;;;;;;4.83;62.47;100482.91;5050078;28;20754;-77
2023/01/10 04:30:16;;;;;;;15.63;9.80;;;;;;;4.93;62.73;100478.50;5050069;28;20535;-76
2023/01/10 04:32:41;;;;;;;18.58;10.43;;;;;;;4.84;62.78;100468.78;5050317;28;20380;-77
2023/01/10 04:35:07;;;;;;;15.15;9.60;;;;;;;4.88;62.98;100466.72;5060847;28;20859;-76
2023/01/10 04:37:33;;;;;;;21.52;11.50;;;;;;;4.92;62.33;100453.19;5059811;28;20389;-76
2023/01/10 04:39:58;;;;;;;16.40;9.88;;;;;;;5.06;62.46;100448.44;5052852;28;20785;-77
2023/01/10 04:42:24;;;;;;;16.07;9.80;;;;;;;5.05;61.96;100433.66;5050311;28;20893;-76
2023/01/10 04:44:49;;;;;;;15.27;9.40;;;;;;;4.83;62.71;100417.25;5050084;28;20420;-77
2023/01/10 04:47:15;;;;;;;15.23;9.67;;;;;;;4.74;62.90;100405.78;5049128;28;20401;-76
2023/01/10 04:49:40;;;;;;;17.88;10.88;;;;;;;4.82;62.73;100418.19;5050147;28;20458;-76
2023/01/10 04:52:05;;;;;;;17.63;10.20;;;;;;;4.78;62.86;100411.59;5048217;28;20468;-76
2023/01/10 04:54:31;;;;;;;20.60;11.80;;;;;;;4.82;63.02;100401.63;5050171;28;20484;-76
2023/01/10 04:56:56;;;;;;;20.23;12.25;;;;;;;4.73;62.55;100426.91;5052713;28;20418;-76
2023/01/10 04:59:22;;;;;;;16.65;10.23;;;;;;;4.79;63.04;100452.66;5049626;28;20805;-75
2023/01/10 05:01:48;;;;;;;20.27;12.27;;;;;;;5.05;62.69;100462.56;5038596;28;20425;-75
2023/01/10 05:04:13;;;;;;;15.27;10.10;;;;;;;5.17;62.10;100458.81;5047205;28;20384;-76
2023/01/10 05:06:39;;;;;;;15.60;9.77;;;;;;;5.24;62.18;100487.97;5042480;28;20528;-76
2023/01/10 05:09:06;;;;;;;15.23;9.77;;;;;;;5.31;62.00;100510.09;5034475;28;20385;-76
2023/01/10 05:11:32;;;;;;;14.48;10.85;;;;;;;5.34;61.98;100508.00;5049406;28;20408;-76
2023/01/10 05:13:57;;;;;;;15.80;10.15;;;;;;;5.33;61.71;100509.00;5048682;28;20411;-76
2023/01/10 05:16:24;;;;;;;16.63;11.23;;;;;;;5.35;62.05;100501.78;5041730;28;20414;-75
2023/01/10 05:18:49;;;;;;;19.98;12.88;;;;;;;5.40;62.03;100500.53;5049084;28;20404;-75
2023/01/10 05:21:16;;;;;;;19.45;12.18;;;;;;;5.50;61.75;100503.97;5050945;28;20452;-75
2023/01/10 05:23:42;;;;;;;19.70;13.00;;;;;;;5.57;61.80;100510.31;5045732;28;20496;-75
2023/01/10 05:26:14;;;;;;;19.23;13.45;;;;;;;5.63;61.28;100538.66;5049050;28;20544;-75
2023/01/10 05:28:40;;;;;;;21.15;14.02;;;;;;;5.58;61.39;100517.22;5047849;28;20393;-75
2023/01/10 05:31:07;;;;;;;25.98;17.15;;;;;;;5.71;61.31;100517.75;5039942;28;20412;-75
2023/01/10 05:33:33;;;;;;;27.55;16.48;;;;;;;5.73;61.14;100497.41;5043738;28;20886;-75
2023/01/10 05:36:06;;;;;;;29.95;17.55;;;;;;;5.61;61.33;100458.28;5047886;28;20865;-75
2023/01/10 05:38:32;;;;;;;28.27;18.15;;;;;;;5.24;62.11;100428.38;5042639;28;20926;-75
2023/01/10 05:40:58;;;;;;;26.07;16.80;;;;;;;5.28;61.61;100426.28;5043586;28;20927;-75
2023/01/10 05:43:25;;;;;;;28.70;16.55;;;;;;;5.33;61.52;100437.19;5041867;28;20408;-75
2023/01/10 05:45:50;;;;;;;26.23;16.38;;;;;;;5.43;61.72;100445.88;5042859;28;20392;-75
2023/01/10 05:48:17;;;;;;;20.35;13.18;;;;;;;5.58;61.69;100448.88;5039772;28;20455;-75
2023/01/10 05:50:42;;;;;;;21.38;13.77;;;;;;;5.72;60.73;100468.63;5035731;28;20372;-75
2023/01/10 05:53:08;;;;;;;26.13;16.83;;;;;;;5.73;60.68;100452.69;5040936;28;20385;-75
2023/01/10 05:55:33;;;;;;;30.97;20.03;;;;;;;5.70;60.76;100463.50;5047856;28;20393;-74
2023/01/10 05:57:59;;;;;;;31.77;20.57;;;;;;;5.75;60.95;100458.63;5047613;28;20503;-74
2023/01/10 06:00:25;;;;;;;29.00;19.15;;;;;;;5.81;61.31;100465.09;5047767;28;20745;-75
2023/01/10 06:02:53;;;;;;;30.23;19.60;;;;;;;5.83;60.93;100471.06;5046036;28;20417;-74
2023/01/10 06:05:19;;;;;;;31.50;20.60;;;;;;;5.81;60.92;100461.66;5038992;28;20399;-75
2023/01/10 06:07:44;;;;;;;34.17;21.40;;;;;;;5.81;60.62;100469.56;5048916;28;20385;-75
2023/01/10 06:10:10;;;;;;;32.20;21.00;;;;;;;5.86;60.96;100483.91;5048022;28;21015;-74
2023/01/10 06:12:38;;;;;;;32.38;20.42;;;;;;;5.84;61.08;100487.69;5047364;28;20373;-74
2023/01/10 06:15:05;;;;;;;32.47;21.80;;;;;;;5.83;60.76;100512.31;5047165;28;20395;-74
2023/01/10 06:17:30;;;;;;;33.03;22.10;;;;;;;5.74;61.00;100500.84;5048415;28;20392;-74
2023/01/10 06:19:55;;;;;;;39.30;25.77;;;;;;;5.75;61.37;100503.34;5048159;28;20741;-75
2023/01/10 06:22:21;;;;;;;44.13;27.50;;;;;;;5.85;61.39;100507.75;5048178;28;20491;-75
2023/01/10 06:24:46;;;;;;;42.30;27.07;;;;;;;5.88;61.00;100510.09;5047186;28;20864;-75
2023/01/10 06:27:12;;;;;;;42.40;24.40;;;;;;;5.77;61.32;100521.63;5049237;28;20391;-74
2023/01/10 06:29:37;;;;;;;42.33;26.77;;;;;;;5.77;60.92;100518.16;5052433;28;20446;-77
2023/01/10 06:32:03;;;;;;;48.30;27.63;;;;;;;5.73;60.96;100512.38;5057661;28;20385;-76
2023/01/10 06:34:28;;;;;;;34.33;21.60;;;;;;;5.61;61.59;100509.06;5052069;28;20391;-77
2023/01/10 06:36:54;;;;;;;38.80;23.58;;;;;;;5.61;61.40;100503.81;5052248;28;20377;-77
2023/01/10 06:39:19;;;;;;;45.80;28.07;;;;;;;5.48;61.45;100498.84;5053443;28;20726;-78
2023/01/10 06:41:45;;;;;;;40.07;23.47;;;;;;;5.50;61.83;100504.81;5054558;28;20396;-78
2023/01/10 06:44:10;;;;;;;41.07;24.77;;;;;;;5.60;61.50;100512.69;5050943;28;20417;-78
2023/01/10 06:46:36;;;;;;;39.70;25.00;;;;;;;5.73;61.38;100518.44;5052116;28;20412;-78
2023/01/10 06:49:01;;;;;;;35.80;23.77;;;;;;;5.79;61.01;100514.41;5057418;28;20872;-77
2023/01/10 06:51:26;;;;;;;34.63;23.00;;;;;;;5.88;60.71;100508.28;5054440;28;20400;-77
2023/01/10 06:53:52;;;;;;;31.88;21.80;;;;;;;6.03;60.71;100524.47;5052785;28;20446;-76
2023/01/10 06:56:17;;;;;;;29.00;19.93;;;;;;;6.03;60.32;100526.25;5053605;28;20385;-75
2023/01/10 06:58:43;;;;;;;32.03;22.77;;;;;;;6.02;60.41;100521.97;5051334;28;20403;-75
2023/01/10 07:01:14;;;;;;;31.73;24.70;;;;;;;6.04;60.65;100538.44;5051512;28;20380;-75
2023/01/10 07:03:40;;;;;;;32.65;22.83;;;;;;;5.97;60.78;100537.38;5055439;28;20422;-76
2023/01/10 07:06:09;;;;;;;32.90;22.77;;;;;;;5.87;60.89;100530.31;5055277;28;20384;-74
2023/01/10 07:08:45;;;;;;;31.23;22.17;;;;;;;5.88;60.84;100545.09;5056382;28;20471;-76
2023/01/10 07:11:12;;;;;;;31.60;24.20;;;;;;;5.97;60.74;100547.91;5052914;28;20725;-74
2023/01/10 07:13:38;;;;;;;26.33;19.90;;;;;;;6.04;60.56;100536.63;5051367;28;20456;-76
2023/01/10 07:16:09;;;;;;;27.83;19.65;;;;;;;6.12;60.40;100538.53;5052774;28;20408;-78
2023/01/10 07:18:36;;;;;;;29.10;19.85;;;;;;;6.10;60.17;100546.59;5053980;28;20381;-78
2023/01/10 07:21:02;;;;;;;32.53;22.90;;;;;;;6.11;60.39;100548.25;5054652;28;20380;-78
2023/01/10 07:23:30;;;;;;;34.00;23.52;;;;;;;5.92;60.57;100550.91;5054474;28;20404;-78
2023/01/10 07:26:05;;;;;;;41.50;30.52;;;;;;;5.96;60.67;100562.00;5054075;28;20396;-78
2023/01/10 07:28:33;;;;;;;44.30;29.38;;;;;;;5.98;60.61;100547.75;5053674;28;20488;-77
2023/01/10 07:30:59;;;;;;;37.20;25.77;;;;;;;5.82;61.26;100547.50;5052562;28;20380;-78
2023/01/10 07:33:25;;;;;;;34.47;24.75;;;;;;;5.97;60.72;100566.31;5053077;28;20376;-77
2023/01/10 07:35:51;;;;;;;36.85;24.33;;;;;;;6.08;60.80;100561.69;5052092;28;20385;-76
2023/01/10 07:38:16;;;;;;;34.90;24.20;;;;;;;6.15;60.49;100563.75;5050953;28;20388;-77
2023/01/10 07:40:43;;;;;;;36.23;24.93;;;;;;;6.15;60.37;100559.31;5052735;28;20423;-78
2023/01/10 07:43:08;;;;;;;39.65;24.85;;;;;;;6.19;60.25;100568.56;5052858;28;20749;-77
2023/01/10 07:45:34;;;;;;;39.65;24.77;;;;;;;6.18;60.46;100566.09;5052245;28;20807;-76
2023/01/10 07:48:03;;;;;;;37.22;23.50;;;;;;;6.26;60.38;100574.91;5053492;28;20385;-78
2023/01/10 07:50:32;;;;;;;38.37;25.73;;;;;;;6.21;60.07;100560.53;5055102;28;20736;-79
2023/01/10 07:52:58;;;;;;;36.65;23.00;;;;;;;6.18;60.06;100568.75;5051704;28;20462;-78
2023/01/10 07:55:24;;;;;;;42.30;27.40;;;;;;;6.10;60.57;100562.41;5050500;28;20442;-77
2023/01/10 07:57:50;;;;;;;34.57;23.93;;;;;;;6.05;60.67;100556.72;5053615;28;20377;-79
2023/01/10 08:00:17;;;;;;;31.02;21.13;;;;;;;6.02;60.65;100550.94;5052230;28;20380;-78
2023/01/10 08:02:42;;;;;;;34.97;22.98;;;;;;;6.00;60.94;100551.06;5058931;28;20399;-77
2023/01/10 08:05:09;;;;;;;45.83;33.27;;;;;;;6.02;60.56;100551.75;5061289;28;20384;-79
2023/01/10 08:07:35;;;;;;;81.20;58.63;;;;;;;6.00;60.80;100558.13;5069248;28;20396;-79
2023/01/10 08:10:01;;;;;;;96.68;68.00;;;;;;;5.83;61.15;100560.50;5053116;28;20381;-78
2023/01/10 08:12:26;;;;;;;47.42;33.45;;;;;;;5.77;61.35;100562.88;5041803;28;20845;-79
2023/01/10 08:14:52;;;;;;;35.67;25.27;;;;;;;5.79;61.56;100567.00;5036805;28;20380;-78
2023/01/10 08:17:18;;;;;;;30.10;22.10;;;;;;;5.81;61.69;100574.78;5039281;28;20439;-77
2023/01/10 08:19:43;;;;;;;39.20;27.83;;;;;;;5.78;61.56;100568.00;5053450;28;20385;-79
2023/01/10 08:22:09;;;;;;;25.50;18.10;;;;;;;5.61;62.30;100559.03;5051188;28;20966;-77
2023/01/10 08:24:34;;;;;;;30.43;20.90;;;;;;;5.48;62.55;100553.25;5053792;28;20389;-79
2023/01/10 08:27:00;;;;;;;29.90;21.38;;;;;;;5.52;62.99;100552.00;5056499;28;20971;-79
2023/01/10 08:29:26;;;;;;;34.17;23.65;;;;;;;5.64;62.86;100553.50;5052883;28;20745;-78
2023/01/10 08:31:51;;;;;;;24.88;17.42;;;;;;;5.58;62.76;100537.44;5052350;28;20391;-79
2023/01/10 08:34:17;;;;;;;27.88;19.38;;;;;;;5.69;62.70;100550.41;5052163;28;20384;-77
2023/01/10 08:36:42;;;;;;;33.33;22.97;;;;;;;5.77;62.58;100545.28;5050434;28;20748;-77
2023/01/10 08:39:08;;;;;;;64.03;47.90;;;;;;;5.77;62.29;100549.72;5050208;28;20389;-79
2023/01/10 08:41:34;;;;;;;24.15;17.73;;;;;;;5.83;62.13;100549.97;5049826;28;20380;-78
2023/01/10 08:43:59;;;;;;;22.83;14.77;;;;;;;5.81;62.83;100562.44;5053983;28;20411;-78
2023/01/10 08:46:25;;;;;;;21.00;14.67;;;;;;;5.63;63.09;100558.88;5051823;28;20386;-80
2023/01/10 08:48:51;;;;;;;20.45;14.25;;;;;;;5.66;63.38;100559.44;5051178;28;20468;-79
2023/01/10 08:51:17;;;;;;;25.30;15.77;;;;;;;5.72;63.16;100553.59;5050998;28;20765;-78
2023/01/10 08:53:43;;;;;;;21.23;14.30;;;;;;;5.83;62.72;100563.13;5050962;28;20423;-79
2023/01/10 08:56:08;;;;;;;24.17;15.83;;;;;;;5.87;63.05;100563.66;5051327;28;20416;-79
2023/01/10 08:58:34;;;;;;;83.83;40.57;;;;;;;5.97;62.76;100555.78;5049905;28;20385;-77
2023/01/10 09:01:04;;;;;;;31.73;22.00;;;;;;;5.81;62.71;100562.44;5051001;28;20389;-80
2023/01/10 09:03:29;;;;;;;29.45;20.35;;;;;;;5.91;63.28;100565.06;5051429;28;20404;-78
2023/01/10 09:05:57;;;;;;;149.73;77.80;;;;;;;6.07;62.47;100564.47;5041074;28;20457;-79
2023/01/10 09:08:22;;;;;;;49.78;29.80;;;;;;;6.19;62.24;100567.75;5052067;28;20837;-79
2023/01/10 09:10:48;;;;;;;88.17;47.60;;;;;;;6.20;62.01;100558.88;5048207;28;20459;-80
2023/01/10 09:13:13;;;;;;;43.47;26.83;;;;;;;6.21;62.16;100560.53;5043480;28;20383;-78
2023/01/10 09:15:41;;;;;;;54.80;34.50;;;;;;;6.32;61.92;100558.56;5038048;28;20471;-77
2023/01/10 09:18:09;;;;;;;78.30;42.92;;;;;;;6.50;61.98;100576.22;5052035;28;20448;-77
2023/01/10 09:20:37;;;;;;;99.18;46.67;;;;;;;6.62;61.83;100574.19;5052759;28;20699;-80
2023/01/10 09:23:16;;;;;;;77.43;42.72;;;;;;;6.68;61.57;100560.41;5049581;28;20415;-77
2023/01/10 09:25:42;;;;;;;43.57;26.83;;;;;;;6.64;61.51;100551.97;5057261;28;20413;-78
2023/01/10 09:28:07;;;;;;;46.50;30.13;;;;;;;6.42;61.59;100550.59;5046931;28;20381;-79
2023/01/10 09:30:33;;;;;;;52.08;35.80;;;;;;;6.38;62.09;100553.69;5051959;28;20881;-77
2023/01/10 09:32:59;;;;;;;37.45;25.48;;;;;;;6.30;62.56;100543.84;5051012;28;20460;-77
2023/01/10 09:35:27;;;;;;;41.17;26.60;;;;;;;6.24;62.40;100542.63;5052592;28;20464;-78
2023/01/10 09:37:54;;;;;;;29.27;18.75;;;;;;;6.13;62.83;100532.31;5053456;28;20372;-78
2023/01/10 09:40:37;;;;;;;34.33;23.83;;;;;;;6.10;63.24;100522.06;5069213;28;20883;-79
2023/01/10 09:43:29;;;;;;;38.13;26.40;;;;;;;6.22;62.93;100533.25;5052892;28;20408;-78
2023/01/10 09:46:01;;;;;;;36.50;25.77;;;;;;;6.34;62.91;100526.81;5051886;28;20904;-79
2023/01/10 09:48:42;;;;;;;29.95;18.30;;;;;;;6.34;62.70;100520.69;5054889;28;20388;-77
2023/01/10 09:51:19;;;;;;;32.38;21.25;;;;;;;6.32;62.88;100518.25;5067939;28;20381;-79
2023/01/10 09:53:46;;;;;;;33.75;21.88;;;;;;;6.36;62.98;100508.25;5052124;28;20377;-79
2023/01/10 09:56:15;;;;;;;31.70;19.70;;;;;;;6.39;62.73;100497.41;5063655;28;20920;-81
2023/01/10 09:58:42;;;;;;;41.10;26.10;;;;;;;6.44;62.53;100508.31;5055218;28;20396;-79
2023/01/10 10:01:37;;;;;;;36.50;24.52;;;;;;;6.30;62.97;100502.59;5052039;28;20404;-79
2023/01/10 10:04:29;;;;;;;67.15;42.50;;;;;;;6.18;63.54;100500.31;5053042;28;20768;-80
2023/01/10 10:06:55;;;;;;;37.72;24.38;;;;;;;6.13;63.96;100493.66;5055097;28;20380;-81
2023/01/10 10:09:28;;;;;;;54.05;38.38;;;;;;;6.15;64.25;100493.50;5054804;28;20400;-78
2023/01/10 10:11:57;;;;;;;49.85;34.20;;;;;;;6.22;64.03;100480.59;5055471;28;20380;-77
2023/01/10 10:15:00;;;;;;;46.08;29.17;;;;;;;6.30;63.84;100475.41;5059490;28;20391;-78
2023/01/10 10:17:35;;;;;;;47.65;31.98;;;;;;;6.28;63.79;100480.00;5057068;28;20488;-80
2023/01/10 10:20:10;;;;;;;39.33;25.98;;;;;;;6.19;64.38;100479.09;5059418;28;20471;-78
2023/01/10 10:23:10;;;;;;;35.67;22.02;;;;;;;6.30;63.94;100473.63;5044139;28;20408;-78
2023/01/10 10:25:44;;;;;;;42.33;29.08;;;;;;;6.28;64.09;100467.69;5056327;28;20958;-80
2023/01/10 10:28:36;;;;;;;40.50;27.35;;;;;;;6.39;64.16;100473.69;5057545;28;20383;-81
2023/01/10 10:31:30;;;;;;;33.08;20.73;;;;;;;6.37;63.80;100468.59;5049150;28;20717;-79
2023/01/10 10:34:14;;;;;;;31.30;19.83;;;;;;;6.29;64.01;100455.34;5044352;28;20510;-80
2023/01/10 10:37:20;;;;;;;30.15;20.45;;;;;;;6.31;64.14;100456.03;5061776;28;20394;-80
2023/01/10 10:39:49;;;;;;;32.63;20.92;;;;;;;6.31;64.35;100456.03;5028249;28;20386;-80
2023/01/10 10:42:17;;;;;;;30.67;19.52;;;;;;;6.33;64.30;100456.69;5006270;28;20844;-79
2023/01/10 10:44:51;;;;;;;36.08;23.48;;;;;;;6.40;64.56;100446.41;5032130;28;20404;-81
2023/01/10 10:47:20;;;;;;;34.42;21.92;;;;;;;6.45;63.95;100447.63;5057484;28;20384;-80
2023/01/10 10:49:54;;;;;;;46.50;31.02;;;;;;;6.54;63.97;100439.81;5055521;28;20372;-80
2023/01/10 10:52:24;;;;;;;47.67;33.23;;;;;;;6.65;63.86;100444.84;5071917;28;20424;-79
2023/01/10 10:54:50;;;;;;;40.20;27.77;;;;;;;6.80;63.70;100450.38;5042270;28;20884;-81
2023/01/10 10:57:17;;;;;;;33.80;24.15;;;;;;;6.89;63.29;100444.22;5054424;28;20383;-79
2023/01/10 10:59:46;;;;;;;176.23;80.45;;;;;;;7.05;63.05;100448.78;5055067;28;20376;-80
2023/01/10 11:02:20;;;;;;;782.45;473.35;;;;;;;7.06;62.70;100432.00;5053833;28;20750;-79
2023/01/10 11:04:46;;;;;;;231.18;122.75;;;;;;;7.16;62.97;100437.16;5053287;28;20384;-80
2023/01/10 11:07:16;;;;;;;177.27;91.47;;;;;;;7.22;62.68;100424.19;5054099;28;20745;-81
2023/01/10 11:12:28;;;;;;;61.17;35.97;;;;;;;7.36;62.61;100416.69;5049960;28;20382;-77
2023/01/10 11:14:54;;;;;;;70.60;41.33;;;;;;;7.41;62.29;100417.88;5046550;28;20869;-79
2023/01/10 11:17:22;;;;;;;66.40;37.77;;;;;;;7.43;62.42;100415.88;5055369;28;20399;-78
2023/01/10 11:20:15;;;;;;;138.23;71.68;;;;;;;7.42;62.40;100414.25;5041264;28;20445;-78
2023/01/10 11:22:48;;;;;;;298.00;155.07;;;;;;;7.45;62.27;100413.09;5043154;28;20510;-79
2023/01/10 11:25:20;;;;;;;108.07;59.33;;;;;;;7.46;62.40;100409.50;5070743;28;20385;-78
2023/01/10 11:27:52;;;;;;;246.70;124.77;;;;;;;7.49;62.23;100414.47;5055146;28;20391;-78
2023/01/10 11:30:29;;;;;;;183.87;99.40;;;;;;;7.58;62.16;100413.50;5055193;28;20373;-76
2023/01/10 11:33:04;;;;;;;89.68;54.90;;;;;;;7.64;62.22;100415.50;5071635;28;20715;-77
2023/01/10 11:35:37;;;;;;;92.13;56.63;;;;;;;7.71;62.16;100418.34;5046848;28;20481;-79
2023/01/10 11:38:06;;;;;;;109.50;66.50;;;;;;;7.68;62.14;100418.66;5049974;28;20397;-79